sensor_id;sensor_type;location;lat;lon;timestamp;pressure;altitude;pressure_sealevel;temperature;humidity
19108;BME280;9686;48.832;9.126;2022-11-20T00:01:20;97656.47;;;9.21;nan
19108;BME280;9686;48.832;9.126;2022-11-20T00:03:46;97654.56;;;9.40;nan
19108;BME280;9686;48.832;9.126;2022-11-20T00:06:17;97653.69;;;9.36;nan
19108;BME280;9686;48.832;9.126;2022-11-20T00:08:43;97659.91;;;9.23;nan
19108;BME280;9686;48.832;9.126;2022-11-20T00:11:20;97660.69;;;9.31;nan
19108;BME280;9686;48.832;9.126;2022-11-20T00:13:48;97659.09;;;9.18;nan
19108;BME280;9686;48.832;9.126;2022-11-20T00:16:16;97657.44;;;9.06;nan
19108;BME280;9686;48.832;9.126;2022-11-20T00:18:41;97660.81;;;9.20;nan
19108;BME280;9686;48.832;9.126;2022-11-20T00:21:12;97651.16;;;9.30;nan
19108;BME280;9686;48.832;9.126;2022-11-20T00:23:38;97656.41;;;9.25;nan
19108;BME280;9686;48.832;9.126;2022-11-20T00:26:05;97652.97;;;9.23;nan
19108;BME280;9686;48.832;9.126;2022-11-20T00:28:30;97648.59;;;9.27;nan
19108;BME280;9686;48.832;9.126;2022-11-20T00:31:07;97655.47;;;9.33;nan
19108;BME280;9686;48.832;9.126;2022-11-20T00:33:33;97649.38;;;9.34;nan
19108;BME280;9686;48.832;9.126;2022-11-20T00:36:03;97651.31;;;9.16;nan
19108;BME280;9686;48.832;9.126;2022-11-20T00:38:30;97649.66;;;9.05;nan
19108;BME280;9686;48.832;9.126;2022-11-20T00:41:09;97649.66;;;9.05;nan
19108;BME280;9686;48.832;9.126;2022-11-20T00:43:36;97647.84;;;9.16;nan
19108;BME280;9686;48.832;9.126;2022-11-20T00:46:04;97656.47;;;9.19;nan
19108;BME280;9686;48.832;9.126;2022-11-20T00:48:30;97650.50;;;9.08;nan
19108;BME280;9686;48.832;9.126;2022-11-20T00:50:57;97648.69;;;9.18;nan
19108;BME280;9686;48.832;9.126;2022-11-20T00:53:23;97652.22;;;9.09;nan
19108;BME280;9686;48.832;9.126;2022-11-20T00:56:03;97652.13;;;9.20;nan
19108;BME280;9686;48.832;9.126;2022-11-20T00:58:31;97661.72;;;9.15;nan
19108;BME280;9686;48.832;9.126;2022-11-20T01:01:10;97648.81;;;9.04;nan
19108;BME280;9686;48.832;9.126;2022-11-20T01:03:39;97658.31;;;9.07;nan
19108;BME280;9686;48.832;9.126;2022-11-20T01:06:07;97657.41;;;9.12;nan
19108;BME280;9686;48.832;9.126;2022-11-20T01:08:35;97658.28;;;9.10;nan
19108;BME280;9686;48.832;9.126;2022-11-20T01:11:03;97653.00;;;9.20;nan
19108;BME280;9686;48.832;9.126;2022-11-20T01:13:30;97647.84;;;9.16;nan
19108;BME280;9686;48.832;9.126;2022-11-20T01:16:23;97652.16;;;9.18;nan
19108;BME280;9686;48.832;9.126;2022-11-20T01:18:51;97668.63;;;9.17;nan
19108;BME280;9686;48.832;9.126;2022-11-20T01:21:20;97675.53;;;9.20;nan
19108;BME280;9686;48.832;9.126;2022-11-20T01:23:47;97669.56;;;9.07;nan
19108;BME280;9686;48.832;9.126;2022-11-20T01:26:32;97665.25;;;9.06;nan
19108;BME280;9686;48.832;9.126;2022-11-20T01:28:59;97664.28;;;9.18;nan
19108;BME280;9686;48.832;9.126;2022-11-20T01:31:30;97673.00;;;9.15;nan
19108;BME280;9686;48.832;9.126;2022-11-20T01:33:58;97669.50;;;9.16;nan
19108;BME280;9686;48.832;9.126;2022-11-20T01:36:25;97667.72;;;9.23;nan
19108;BME280;9686;48.832;9.126;2022-11-20T01:38:53;97670.28;;;9.26;nan
19108;BME280;9686;48.832;9.126;2022-11-20T01:41:19;97676.44;;;9.17;nan
19108;BME280;9686;48.832;9.126;2022-11-20T01:44:04;97668.63;;;9.19;nan
19108;BME280;9686;48.832;9.126;2022-11-20T01:46:35;97668.69;;;9.08;nan
19108;BME280;9686;48.832;9.126;2022-11-20T01:49:09;97673.03;;;9.12;nan
19108;BME280;9686;48.832;9.126;2022-11-20T01:51:42;97657.41;;;9.12;nan
19108;BME280;9686;48.832;9.126;2022-11-20T01:54:12;97660.78;;;9.22;nan
19108;BME280;9686;48.832;9.126;2022-11-20T01:56:43;97667.75;;;9.20;nan
19108;BME280;9686;48.832;9.126;2022-11-20T01:59:10;97665.91;;;9.30;nan
19108;BME280;9686;48.832;9.126;2022-11-20T02:01:38;97663.38;;;9.22;nan
19108;BME280;9686;48.832;9.126;2022-11-20T02:04:04;97669.44;;;9.24;nan
19108;BME280;9686;48.832;9.126;2022-11-20T02:06:48;97664.22;;;9.25;nan
19108;BME280;9686;48.832;9.126;2022-11-20T02:09:15;97666.09;;;9.13;nan
19108;BME280;9686;48.832;9.126;2022-11-20T02:11:40;97668.72;;;9.07;nan
19108;BME280;9686;48.832;9.126;2022-11-20T02:14:06;97669.56;;;9.07;nan
19108;BME280;9686;48.832;9.126;2022-11-20T02:16:39;97678.06;;;9.27;nan
19108;BME280;9686;48.832;9.126;2022-11-20T02:19:16;97673.03;;;9.12;nan
19108;BME280;9686;48.832;9.126;2022-11-20T02:24:12;97671.31;;;9.11;nan
19108;BME280;9686;48.832;9.126;2022-11-20T02:26:55;97673.88;;;9.10;nan
19108;BME280;9686;48.832;9.126;2022-11-20T02:29:26;97663.50;;;9.07;nan
19108;BME280;9686;48.832;9.126;2022-11-20T02:31:55;97665.25;;;9.06;nan
19108;BME280;9686;48.832;9.126;2022-11-20T02:34:21;97667.00;;;9.04;nan
19108;BME280;9686;48.832;9.126;2022-11-20T02:36:48;97671.28;;;9.08;nan
19108;BME280;9686;48.832;9.126;2022-11-20T02:39:15;97666.97;;;9.07;nan
19108;BME280;9686;48.832;9.126;2022-11-20T02:41:42;97668.56;;;9.25;nan
19108;BME280;9686;48.832;9.126;2022-11-20T02:44:07;97671.19;;;9.20;nan
19108;BME280;9686;48.832;9.126;2022-11-20T02:46:33;97673.88;;;9.13;nan
19108;BME280;9686;48.832;9.126;2022-11-20T02:48:58;97665.91;;;9.30;nan
19108;BME280;9686;48.832;9.126;2022-11-20T02:51:24;97667.81;;;9.14;nan
19108;BME280;9686;48.832;9.126;2022-11-20T02:53:49;97663.31;;;9.28;nan
19108;BME280;9686;48.832;9.126;2022-11-20T02:56:15;97669.41;;;9.27;nan
19108;BME280;9686;48.832;9.126;2022-11-20T02:58:40;97666.78;;;9.27;nan
19108;BME280;9686;48.832;9.126;2022-11-20T03:01:12;97664.25;;;9.22;100.00
19108;BME280;9686;48.832;9.126;2022-11-20T03:03:38;97673.63;;;9.39;100.00
19108;BME280;9686;48.832;9.126;2022-11-20T03:06:03;97666.72;;;9.38;100.00
19108;BME280;9686;48.832;9.126;2022-11-20T03:08:29;97662.28;;;9.46;100.00
19108;BME280;9686;48.832;9.126;2022-11-20T03:10:54;97664.09;;;9.39;100.00
19108;BME280;9686;48.832;9.126;2022-11-20T03:13:19;97658.84;;;9.44;100.00
19108;BME280;9686;48.832;9.126;2022-11-20T03:15:45;97662.28;;;9.44;100.00
19108;BME280;9686;48.832;9.126;2022-11-20T03:18:10;97651.88;;;9.46;100.00
19108;BME280;9686;48.832;9.126;2022-11-20T03:20:35;97655.44;;;9.34;100.00
19108;BME280;9686;48.832;9.126;2022-11-20T03:23:01;97651.06;;;9.41;100.00
19108;BME280;9686;48.832;9.126;2022-11-20T03:25:26;97646.81;;;9.32;100.00
19108;BME280;9686;48.832;9.126;2022-11-20T03:27:52;97647.59;;;9.42;100.00
19108;BME280;9686;48.832;9.126;2022-11-20T03:30:17;97641.53;;;9.41;100.00
19108;BME280;9686;48.832;9.126;2022-11-20T03:32:42;97646.72;;;9.41;100.00
19108;BME280;9686;48.832;9.126;2022-11-20T03:35:08;97651.16;;;9.32;100.00
19108;BME280;9686;48.832;9.126;2022-11-20T03:37:34;97651.25;;;9.22;100.00
19108;BME280;9686;48.832;9.126;2022-11-20T03:39:59;97649.31;;;9.43;100.00
19108;BME280;9686;48.832;9.126;2022-11-20T03:42:24;97640.66;;;9.42;100.00
19108;BME280;9686;48.832;9.126;2022-11-20T03:45:08;97640.53;;;9.51;100.00
19108;BME280;9686;48.832;9.126;2022-11-20T03:47:33;97638.91;;;9.43;100.00
19108;BME280;9686;48.832;9.126;2022-11-20T03:49:59;97639.78;;;9.42;100.00
19108;BME280;9686;48.832;9.126;2022-11-20T03:52:24;97638.75;;;9.55;100.00
19108;BME280;9686;48.832;9.126;2022-11-20T03:54:49;97639.75;;;9.43;100.00
19108;BME280;9686;48.832;9.126;2022-11-20T03:57:15;97636.25;;;9.47;100.00
19108;BME280;9686;48.832;9.126;2022-11-20T03:59:40;97638.97;;;9.34;100.00
19108;BME280;9686;48.832;9.126;2022-11-20T04:02:05;97639.84;;;9.37;100.00
19108;BME280;9686;48.832;9.126;2022-11-20T04:04:31;97644.44;;;9.11;100.00
19108;BME280;9686;48.832;9.126;2022-11-20T04:06:56;97637.25;;;9.37;100.00
19108;BME280;9686;48.832;9.126;2022-11-20T04:09:21;97635.47;;;9.36;100.00
19108;BME280;9686;48.832;9.126;2022-11-20T04:11:47;97636.25;;;9.47;100.00
19108;BME280;9686;48.832;9.126;2022-11-20T04:14:14;97637.34;;;9.25;100.00
19108;BME280;9686;48.832;9.126;2022-11-20T04:16:40;97635.56;;;9.28;100.00
19108;BME280;9686;48.832;9.126;2022-11-20T04:19:09;97634.63;;;9.39;100.00
19108;BME280;9686;48.832;9.126;2022-11-20T04:21:35;97630.38;;;9.27;100.00
19108;BME280;9686;48.832;9.126;2022-11-20T04:24:01;97631.09;;;9.43;100.00
19108;BME280;9686;48.832;9.126;2022-11-20T04:26:27;97638.88;;;9.44;100.00
19108;BME280;9686;48.832;9.126;2022-11-20T04:28:53;97634.53;;;9.45;100.00
19108;BME280;9686;48.832;9.126;2022-11-20T04:31:25;97630.44;;;9.24;100.00
19108;BME280;9686;48.832;9.126;2022-11-20T04:33:51;97633.03;;;9.22;100.00
19108;BME280;9686;48.832;9.126;2022-11-20T04:36:21;97635.72;;;9.16;100.00
19108;BME280;9686;48.832;9.126;2022-11-20T04:38:54;97636.59;;;9.14;100.00
19108;BME280;9686;48.832;9.126;2022-11-20T04:41:21;97634.63;;;9.36;100.00
19108;BME280;9686;48.832;9.126;2022-11-20T04:43:48;97626.75;;;9.43;100.00
19108;BME280;9686;48.832;9.126;2022-11-20T04:46:15;97625.16;;;9.30;100.00
19108;BME280;9686;48.832;9.126;2022-11-20T04:48:40;97623.34;;;9.40;100.00
19108;BME280;9686;48.832;9.126;2022-11-20T04:51:06;97623.34;;;9.38;100.00
19108;BME280;9686;48.832;9.126;2022-11-20T04:53:31;97628.38;;;9.52;100.00
19108;BME280;9686;48.832;9.126;2022-11-20T04:56:01;97623.31;;;9.41;100.00
19108;BME280;9686;48.832;9.126;2022-11-20T04:58:27;97628.41;;;9.50;100.00
19108;BME280;9686;48.832;9.126;2022-11-20T05:00:52;97624.03;;;9.54;100.00
19108;BME280;9686;48.832;9.126;2022-11-20T05:03:17;97624.00;;;9.55;100.00
19108;BME280;9686;48.832;9.126;2022-11-20T05:05:43;97628.38;;;9.52;100.00
19108;BME280;9686;48.832;9.126;2022-11-20T05:08:08;97629.22;;;9.55;100.00
19108;BME280;9686;48.832;9.126;2022-11-20T05:10:33;97627.50;;;9.54;100.00
19108;BME280;9686;48.832;9.126;2022-11-20T05:12:58;97613.50;;;9.65;100.00
19108;BME280;9686;48.832;9.126;2022-11-20T05:15:24;97623.69;;;9.81;100.00
19108;BME280;9686;48.832;9.126;2022-11-20T05:17:50;97621.88;;;9.89;100.00
19108;BME280;9686;48.832;9.126;2022-11-20T05:20:16;97624.38;;;9.97;100.00
19108;BME280;9686;48.832;9.126;2022-11-20T05:22:43;97617.56;;;9.85;100.00
19108;BME280;9686;48.832;9.126;2022-11-20T05:25:09;97615.19;;;9.69;100.00
19108;BME280;9686;48.832;9.126;2022-11-20T05:27:34;97622.03;;;9.76;100.00
19108;BME280;9686;48.832;9.126;2022-11-20T05:29:59;97619.50;;;9.71;100.00
19108;BME280;9686;48.832;9.126;2022-11-20T05:32:25;97629.03;;;9.71;100.00
19108;BME280;9686;48.832;9.126;2022-11-20T05:34:54;97621.06;;;9.84;100.00
19108;BME280;9686;48.832;9.126;2022-11-20T05:37:19;97623.81;;;9.74;100.00
19108;BME280;9686;48.832;9.126;2022-11-20T05:39:44;97627.19;;;9.80;100.00
19108;BME280;9686;48.832;9.126;2022-11-20T05:42:10;97621.88;;;9.88;100.00
19108;BME280;9686;48.832;9.126;2022-11-20T05:44:54;97626.94;;;9.99;100.00
19108;BME280;9686;48.832;9.126;2022-11-20T05:47:19;97623.59;;;9.91;100.00
19108;BME280;9686;48.832;9.126;2022-11-20T05:49:44;97626.16;;;9.94;100.00
19108;BME280;9686;48.832;9.126;2022-11-20T05:52:09;97616.56;;;9.97;100.00
19108;BME280;9686;48.832;9.126;2022-11-20T05:54:35;97629.50;;;10.03;100.00
19108;BME280;9686;48.832;9.126;2022-11-20T05:57:00;97625.34;;;9.87;100.00
19108;BME280;9686;48.832;9.126;2022-11-20T05:59:25;97618.28;;;9.98;100.00
19108;BME280;9686;48.832;9.126;2022-11-20T06:01:51;97624.44;;;9.93;100.00
19108;BME280;9686;48.832;9.126;2022-11-20T06:04:16;97623.75;;;9.78;100.00
19108;BME280;9686;48.832;9.126;2022-11-20T06:06:41;97629.78;;;9.80;100.00
19108;BME280;9686;48.832;9.126;2022-11-20T06:09:07;97626.28;;;9.83;100.00
19108;BME280;9686;48.832;9.126;2022-11-20T06:11:32;97632.28;;;9.89;100.00
19108;BME280;9686;48.832;9.126;2022-11-20T06:13:57;97626.22;;;9.89;100.00
19108;BME280;9686;48.832;9.126;2022-11-20T06:16:23;97620.13;;;9.88;100.00
19108;BME280;9686;48.832;9.126;2022-11-20T06:18:48;97612.31;;;9.88;100.00
19108;BME280;9686;48.832;9.126;2022-11-20T06:21:17;97615.22;;;10.33;100.00
19108;BME280;9686;48.832;9.126;2022-11-20T06:23:44;97615.06;;;9.79;100.00
19108;BME280;9686;48.832;9.126;2022-11-20T06:26:15;97610.81;;;9.71;100.00
19108;BME280;9686;48.832;9.126;2022-11-20T06:28:40;97615.31;;;9.58;100.00
19108;BME280;9686;48.832;9.126;2022-11-20T06:31:07;97612.47;;;9.76;100.00
19108;BME280;9686;48.832;9.126;2022-11-20T06:33:34;97609.00;;;9.77;100.00
19108;BME280;9686;48.832;9.126;2022-11-20T06:36:01;97610.63;;;9.84;100.00
19108;BME280;9686;48.832;9.126;2022-11-20T06:38:27;97618.75;;;9.60;100.00
19108;BME280;9686;48.832;9.126;2022-11-20T06:40:53;97610.75;;;9.75;100.00
19108;BME280;9686;48.832;9.126;2022-11-20T06:43:18;97613.41;;;9.72;100.00
19108;BME280;9686;48.832;9.126;2022-11-20T06:45:43;97617.66;;;9.78;100.00
19108;BME280;9686;48.832;9.126;2022-11-20T06:48:09;97612.44;;;9.81;100.00
19108;BME280;9686;48.832;9.126;2022-11-20T06:50:36;97623.66;;;9.84;100.00
19108;BME280;9686;48.832;9.126;2022-11-20T06:53:03;97614.16;;;9.82;100.00
19108;BME280;9686;48.832;9.126;2022-11-20T06:55:29;97620.31;;;9.75;100.00
19108;BME280;9686;48.832;9.126;2022-11-20T06:57:54;97624.69;;;9.73;100.00
19108;BME280;9686;48.832;9.126;2022-11-20T07:00:20;97620.34;;;9.73;100.00
19108;BME280;9686;48.832;9.126;2022-11-20T07:02:45;97617.63;;;9.81;100.00
19108;BME280;9686;48.832;9.126;2022-11-20T07:05:10;97620.34;;;9.73;100.00
19108;BME280;9686;48.832;9.126;2022-11-20T07:07:35;97629.75;;;9.82;100.00
19108;BME280;9686;48.832;9.126;2022-11-20T07:10:01;97619.50;;;9.70;100.00
19108;BME280;9686;48.832;9.126;2022-11-20T07:12:26;97624.75;;;9.68;100.00
19108;BME280;9686;48.832;9.126;2022-11-20T07:14:51;97611.59;;;9.79;100.00
19108;BME280;9686;48.832;9.126;2022-11-20T07:17:17;97622.84;;;9.79;100.00
19108;BME280;9686;48.832;9.126;2022-11-20T07:19:42;97622.88;;;9.78;100.00
19108;BME280;9686;48.832;9.126;2022-11-20T07:22:08;97626.47;;;9.68;100.00
19108;BME280;9686;48.832;9.126;2022-11-20T07:24:33;97632.50;;;9.71;100.00
19108;BME280;9686;48.832;9.126;2022-11-20T07:27:00;97630.69;;;9.76;100.00
19108;BME280;9686;48.832;9.126;2022-11-20T07:29:25;97633.06;;;9.96;100.00
19108;BME280;9686;48.832;9.126;2022-11-20T07:31:50;97631.47;;;9.83;100.00
19108;BME280;9686;48.832;9.126;2022-11-20T07:34:16;97632.06;;;10.06;100.00
19108;BME280;9686;48.832;9.126;2022-11-20T07:36:41;97632.38;;;9.82;100.00
19108;BME280;9686;48.832;9.126;2022-11-20T07:39:06;97641.84;;;9.87;100.00
19108;BME280;9686;48.832;9.126;2022-11-20T07:41:32;97637.13;;;10.18;100.00
19108;BME280;9686;48.832;9.126;2022-11-20T07:43:58;97641.47;;;10.16;100.00
19108;BME280;9686;48.832;9.126;2022-11-20T07:46:23;97645.97;;;10.04;100.00
19108;BME280;9686;48.832;9.126;2022-11-20T07:48:48;97643.50;;;9.95;100.00
19108;BME280;9686;48.832;9.126;2022-11-20T07:51:14;97645.88;;;10.11;100.00
19108;BME280;9686;48.832;9.126;2022-11-20T07:53:39;97637.13;;;10.18;100.00
19108;BME280;9686;48.832;9.126;2022-11-20T07:56:05;97644.94;;;10.18;100.00
19108;BME280;9686;48.832;9.126;2022-11-20T07:58:31;97649.38;;;10.09;100.00
19108;BME280;9686;48.832;9.126;2022-11-20T08:01:01;97647.59;;;10.12;100.00
19108;BME280;9686;48.832;9.126;2022-11-20T08:03:27;97651.84;;;10.19;100.00
19108;BME280;9686;48.832;9.126;2022-11-20T08:05:52;97652.53;;;10.34;100.00
19108;BME280;9686;48.832;9.126;2022-11-20T08:08:17;97655.34;;;10.22;100.00
19108;BME280;9686;48.832;9.126;2022-11-20T08:10:42;97660.53;;;10.20;100.00
19108;BME280;9686;48.832;9.126;2022-11-20T08:13:08;97660.56;;;10.17;100.00
19108;BME280;9686;48.832;9.126;2022-11-20T08:15:52;97655.25;;;10.28;100.00
19108;BME280;9686;48.832;9.126;2022-11-20T08:18:17;97657.06;;;10.21;100.00
19108;BME280;9686;48.832;9.126;2022-11-20T08:20:43;97661.16;;;10.37;100.00
19108;BME280;9686;48.832;9.126;2022-11-20T08:23:09;97658.56;;;10.37;100.00
19108;BME280;9686;48.832;9.126;2022-11-20T08:25:35;97656.72;;;10.45;100.00
19108;BME280;9686;48.832;9.126;2022-11-20T08:28:04;97657.56;;;10.47;100.00
19108;BME280;9686;48.832;9.126;2022-11-20T08:30:29;97660.19;;;10.46;100.00
19108;BME280;9686;48.832;9.126;2022-11-20T08:33:04;97664.38;;;10.56;100.00
19108;BME280;9686;48.832;9.126;2022-11-20T08:35:33;97670.50;;;10.54;100.00
19108;BME280;9686;48.832;9.126;2022-11-20T08:37:59;97664.63;;;10.38;100.00
19108;BME280;9686;48.832;9.126;2022-11-20T08:40:25;97662.50;;;10.64;100.00
19108;BME280;9686;48.832;9.126;2022-11-20T08:42:51;97658.94;;;10.71;100.00
19108;BME280;9686;48.832;9.126;2022-11-20T08:45:17;97664.97;;;10.75;100.00
19108;BME280;9686;48.832;9.126;2022-11-20T08:47:44;97669.91;;;10.92;100.00
19108;BME280;9686;48.832;9.126;2022-11-20T08:50:11;97671.56;;;10.97;100.00
19108;BME280;9686;48.832;9.126;2022-11-20T08:52:37;97675.97;;;10.92;100.00
19108;BME280;9686;48.832;9.126;2022-11-20T08:55:03;97676.72;;;11.00;100.00
19108;BME280;9686;48.832;9.126;2022-11-20T08:57:31;97681.94;;;11.00;100.00
19108;BME280;9686;48.832;9.126;2022-11-20T08:59:57;97680.53;;;10.79;100.00
19108;BME280;9686;48.832;9.126;2022-11-20T09:02:22;97672.41;;;10.99;100.00
19108;BME280;9686;48.832;9.126;2022-11-20T09:04:47;97679.38;;;10.99;100.00
19108;BME280;9686;48.832;9.126;2022-11-20T09:07:13;97678.84;;;11.29;100.00
19108;BME280;9686;48.832;9.126;2022-11-20T09:09:38;97681.63;;;11.20;100.00
19108;BME280;9686;48.832;9.126;2022-11-20T09:12:04;97688.66;;;11.15;100.00
19108;BME280;9686;48.832;9.126;2022-11-20T09:14:29;97683.16;;;11.32;100.00
19108;BME280;9686;48.832;9.126;2022-11-20T09:16:56;97691.13;;;11.24;100.00
19108;BME280;9686;48.832;9.126;2022-11-20T09:19:23;97693.31;;;11.49;100.00
19108;BME280;9686;48.832;9.126;2022-11-20T09:21:48;97693.81;;;11.20;100.00
19108;BME280;9686;48.832;9.126;2022-11-20T09:24:14;97692.88;;;11.24;100.00
19108;BME280;9686;48.832;9.126;2022-11-20T09:26:39;97692.78;;;11.28;100.00
19108;BME280;9686;48.832;9.126;2022-11-20T09:29:04;97692.50;;;11.43;100.00
19108;BME280;9686;48.832;9.126;2022-11-20T09:31:31;97701.59;;;11.21;100.00
19108;BME280;9686;48.832;9.126;2022-11-20T09:33:56;97701.50;;;11.75;100.00
19108;BME280;9686;48.832;9.126;2022-11-20T09:36:22;97698.66;;;11.39;100.00
19108;BME280;9686;48.832;9.126;2022-11-20T09:38:47;97706.53;;;11.38;100.00
19108;BME280;9686;48.832;9.126;2022-11-20T09:41:46;97705.88;;;11.74;100.00
19108;BME280;9686;48.832;9.126;2022-11-20T09:47:12;97710.28;;;11.22;100.00
19108;BME280;9686;48.832;9.126;2022-11-20T09:50:06;97715.13;;;10.91;100.00
19108;BME280;9686;48.832;9.126;2022-11-20T09:55:19;97718.13;;;11.69;100.00
19108;BME280;9686;48.832;9.126;2022-11-20T09:57:46;97716.22;;;11.81;100.00
19108;BME280;9686;48.832;9.126;2022-11-20T10:00:14;97712.91;;;11.71;100.00
19108;BME280;9686;48.832;9.126;2022-11-20T10:05:10;97708.22;;;11.40;100.00
19108;BME280;9686;48.832;9.126;2022-11-20T10:07:42;97708.81;;;11.56;100.00
19108;BME280;9686;48.832;9.126;2022-11-20T10:10:29;97710.50;;;11.59;100.00
19108;BME280;9686;48.832;9.126;2022-11-20T10:16:03;97709.91;;;10.91;100.00
19108;BME280;9686;48.832;9.126;2022-11-20T10:21:27;97723.44;;;12.13;100.00
19108;BME280;9686;48.832;9.126;2022-11-20T10:27:18;97726.94;;;10.56;100.00
19108;BME280;9686;48.832;9.126;2022-11-20T10:30:13;97729.72;;;10.44;100.00
19108;BME280;9686;48.832;9.126;2022-11-20T10:32:42;97730.59;;;10.40;100.00
19108;BME280;9686;48.832;9.126;2022-11-20T10:37:42;97732.16;;;10.55;100.00
19108;BME280;9686;48.832;9.126;2022-11-20T10:40:47;97726.53;;;10.84;100.00
19108;BME280;9686;48.832;9.126;2022-11-20T10:43:37;97742.00;;;11.50;100.00
19108;BME280;9686;48.832;9.126;2022-11-20T10:46:12;97725.72;;;10.12;100.00
19108;BME280;9686;48.832;9.126;2022-11-20T10:48:42;97722.00;;;11.49;100.00
19108;BME280;9686;48.832;9.126;2022-11-20T10:51:27;97726.25;;;10.40;100.00
19108;BME280;9686;48.832;9.126;2022-11-20T10:53:57;97717.53;;;10.44;100.00
19108;BME280;9686;48.832;9.126;2022-11-20T10:56:38;97716.63;;;10.47;100.00
19108;BME280;9686;48.832;9.126;2022-11-20T11:02:01;97714.63;;;10.67;100.00
19108;BME280;9686;48.832;9.126;2022-11-20T11:07:25;97717.75;;;10.89;100.00
19108;BME280;9686;48.832;9.126;2022-11-20T11:09:54;97716.00;;;10.90;100.00
19108;BME280;9686;48.832;9.126;2022-11-20T11:12:21;97710.81;;;10.88;100.00
19108;BME280;9686;48.832;9.126;2022-11-20T11:14:48;97704.81;;;10.83;100.00
19108;BME280;9686;48.832;9.126;2022-11-20T11:17:33;97702.84;;;10.99;100.00
19108;BME280;9686;48.832;9.126;2022-11-20T11:20:15;97705.44;;;10.99;100.00
19108;BME280;9686;48.832;9.126;2022-11-20T11:22:49;97686.94;;;11.12;100.00
19108;BME280;9686;48.832;9.126;2022-11-20T11:27:58;97688.00;;;11.53;100.00
19108;BME280;9686;48.832;9.126;2022-11-20T11:30:25;97675.63;;;12.49;100.00
19108;BME280;9686;48.832;9.126;2022-11-20T11:33:03;97664.16;;;13.29;100.00
19108;BME280;9686;48.832;9.126;2022-11-20T11:35:29;97659.09;;;13.86;100.00
19108;BME280;9686;48.832;9.126;2022-11-20T11:38:06;97653.59;;;14.25;100.00
19108;BME280;9686;48.832;9.126;2022-11-20T11:40:38;97648.88;;;14.94;100.00
19108;BME280;9686;48.832;9.126;2022-11-20T11:43:06;97637.16;;;15.30;100.00
19108;BME280;9686;48.832;9.126;2022-11-20T11:46:01;97637.66;;;15.41;100.00
19108;BME280;9686;48.832;9.126;2022-11-20T11:48:27;97626.53;;;15.33;100.00
19108;BME280;9686;48.832;9.126;2022-11-20T11:50:52;97628.09;;;14.88;100.00
19108;BME280;9686;48.832;9.126;2022-11-20T11:53:21;97636.66;;;14.37;100.00
19108;BME280;9686;48.832;9.126;2022-11-20T11:56:08;97626.19;;;13.76;100.00
19108;BME280;9686;48.832;9.126;2022-11-20T11:58:43;97631.78;;;13.32;100.00
19108;BME280;9686;48.832;9.126;2022-11-20T12:06:40;97630.88;;;12.24;100.00
19108;BME280;9686;48.832;9.126;2022-11-20T12:09:12;97624.16;;;12.13;100.00
19108;BME280;9686;48.832;9.126;2022-11-20T12:11:47;97629.09;;;12.26;100.00
19108;BME280;9686;48.832;9.126;2022-11-20T12:14:22;97620.44;;;12.24;100.00
19108;BME280;9686;48.832;9.126;2022-11-20T12:16:52;97622.03;;;12.30;100.00
19108;BME280;9686;48.832;9.126;2022-11-20T12:19:18;97630.06;;;12.21;100.00
19108;BME280;9686;48.832;9.126;2022-11-20T12:21:48;97619.31;;;12.34;100.00
19108;BME280;9686;48.832;9.126;2022-11-20T12:24:37;97612.69;;;12.18;100.00
19108;BME280;9686;48.832;9.126;2022-11-20T12:38:31;97603.25;;;12.13;100.00
19108;BME280;9686;48.832;9.126;2022-11-20T12:44:42;97610.88;;;12.23;100.00
19108;BME280;9686;48.832;9.126;2022-11-20T12:55:59;97613.16;;;11.54;98.78
19108;BME280;9686;48.832;9.126;2022-11-20T13:07:12;97615.88;;;11.48;100.00
19108;BME280;9686;48.832;9.126;2022-11-20T13:09:47;97622.16;;;11.37;98.97
19108;BME280;9686;48.832;9.126;2022-11-20T13:12:26;97621.72;;;11.60;99.78
19108;BME280;9686;48.832;9.126;2022-11-20T13:15:02;97621.94;;;11.50;100.00
19108;BME280;9686;48.832;9.126;2022-11-20T13:20:14;97611.41;;;11.54;94.41
19108;BME280;9686;48.832;9.126;2022-11-20T13:27:51;97597.31;;;12.06;96.72
19108;BME280;9686;48.832;9.126;2022-11-20T13:30:19;97591.19;;;12.07;89.85
19108;BME280;9686;48.832;9.126;2022-11-20T13:35:54;97569.50;;;12.41;93.03
19108;BME280;9686;48.832;9.126;2022-11-20T13:38:19;97571.81;;;12.16;85.85
19108;BME280;9686;48.832;9.126;2022-11-20T13:40:53;97571.94;;;12.11;82.15
19108;BME280;9686;48.832;9.126;2022-11-20T13:43:40;97568.13;;;12.26;82.89
19108;BME280;9686;48.832;9.126;2022-11-20T13:46:08;97572.69;;;12.16;88.20
19108;BME280;9686;48.832;9.126;2022-11-20T13:48:45;97578.88;;;12.12;81.98
19108;BME280;9686;48.832;9.126;2022-11-20T13:56:48;97588.25;;;11.82;87.65
19108;BME280;9686;48.832;9.126;2022-11-20T13:59:40;97589.28;;;11.73;88.18
19108;BME280;9686;48.832;9.126;2022-11-20T14:02:13;97585.59;;;11.84;88.06
19108;BME280;9686;48.832;9.126;2022-11-20T14:04:43;97591.81;;;11.77;91.56
19108;BME280;9686;48.832;9.126;2022-11-20T14:07:09;97598.28;;;11.57;95.67
19108;BME280;9686;48.832;9.126;2022-11-20T14:09:36;97595.84;;;11.50;100.00
19108;BME280;9686;48.832;9.126;2022-11-20T14:12:02;97593.19;;;11.51;100.00
19108;BME280;9686;48.832;9.126;2022-11-20T14:14:29;97590.66;;;11.48;100.00
19108;BME280;9686;48.832;9.126;2022-11-20T14:20:00;97584.44;;;11.54;100.00
19108;BME280;9686;48.832;9.126;2022-11-20T14:22:27;97588.09;;;11.45;100.00
19108;BME280;9686;48.832;9.126;2022-11-20T14:27:39;97583.81;;;11.41;100.00
19108;BME280;9686;48.832;9.126;2022-11-20T14:30:06;97574.84;;;11.56;100.00
19108;BME280;9686;48.832;9.126;2022-11-20T14:32:37;97582.41;;;11.68;100.00
19108;BME280;9686;48.832;9.126;2022-11-20T14:35:08;97588.63;;;11.61;100.00
19108;BME280;9686;48.832;9.126;2022-11-20T14:37:37;97579.94;;;11.60;99.33
19108;BME280;9686;48.832;9.126;2022-11-20T14:40:30;97576.44;;;11.61;100.00
19108;BME280;9686;48.832;9.126;2022-11-20T14:46:05;97570.41;;;11.59;100.00
19108;BME280;9686;48.832;9.126;2022-11-20T14:49:00;97567.06;;;11.53;100.00
19108;BME280;9686;48.832;9.126;2022-11-20T14:51:35;97557.59;;;11.49;100.00
19108;BME280;9686;48.832;9.126;2022-11-20T14:54:31;97555.16;;;11.38;100.00
19108;BME280;9686;48.832;9.126;2022-11-20T14:57:01;97545.16;;;11.60;100.00
19108;BME280;9686;48.832;9.126;2022-11-20T14:59:35;97544.22;;;11.62;100.00